sensor_id;sensor_type;location;lat;lon;timestamp;P1;durP1;ratioP1;P2;durP2;ratioP2
21202;SDS011;10759;51.982;9.232;2023-02-15T00:00:07;18.85;;;17.00;;
21202;SDS011;10759;51.982;9.232;2023-02-15T00:05:05;20.13;;;18.02;;
21202;SDS011;10759;51.982;9.232;2023-02-15T00:07:34;20.73;;;18.73;;
21202;SDS011;10759;51.982;9.232;2023-02-15T00:10:03;19.58;;;17.75;;
21202;SDS011;10759;51.982;9.232;2023-02-15T00:12:32;19.60;;;17.70;;
21202;SDS011;10759;51.982;9.232;2023-02-15T00:15:01;20.55;;;18.42;;
21202;SDS011;10759;51.982;9.232;2023-02-15T00:17:29;19.77;;;17.77;;
21202;SDS011;10759;51.982;9.232;2023-02-15T00:19:57;19.30;;;17.40;;
21202;SDS011;10759;51.982;9.232;2023-02-15T00:22:25;20.38;;;18.17;;
21202;SDS011;10759;51.982;9.232;2023-02-15T00:24:53;19.88;;;17.48;;
21202;SDS011;10759;51.982;9.232;2023-02-15T00:27:21;20.05;;;18.13;;
21202;SDS011;10759;51.982;9.232;2023-02-15T00:29:49;20.48;;;18.42;;
21202;SDS011;10759;51.982;9.232;2023-02-15T00:32:18;20.48;;;17.88;;
21202;SDS011;10759;51.982;9.232;2023-02-15T00:34:46;19.80;;;17.77;;
21202;SDS011;10759;51.982;9.232;2023-02-15T00:37:15;20.02;;;17.85;;
21202;SDS011;10759;51.982;9.232;2023-02-15T00:39:46;21.00;;;18.88;;
21202;SDS011;10759;51.982;9.232;2023-02-15T00:42:14;21.73;;;18.77;;
21202;SDS011;10759;51.982;9.232;2023-02-15T00:44:42;19.50;;;17.50;;
21202;SDS011;10759;51.982;9.232;2023-02-15T00:47:09;19.95;;;17.95;;
21202;SDS011;10759;51.982;9.232;2023-02-15T00:49:39;21.52;;;19.33;;
21202;SDS011;10759;51.982;9.232;2023-02-15T00:52:07;22.08;;;18.23;;
21202;SDS011;10759;51.982;9.232;2023-02-15T00:54:35;21.98;;;19.65;;
21202;SDS011;10759;51.982;9.232;2023-02-15T00:57:05;19.17;;;17.27;;
21202;SDS011;10759;51.982;9.232;2023-02-15T00:59:32;20.33;;;18.23;;
21202;SDS011;10759;51.982;9.232;2023-02-15T01:02:00;18.95;;;17.02;;
21202;SDS011;10759;51.982;9.232;2023-02-15T01:04:28;20.48;;;18.38;;
21202;SDS011;10759;51.982;9.232;2023-02-15T01:06:58;19.90;;;17.88;;
21202;SDS011;10759;51.982;9.232;2023-02-15T01:09:26;19.20;;;17.10;;
21202;SDS011;10759;51.982;9.232;2023-02-15T01:11:55;20.90;;;18.70;;
21202;SDS011;10759;51.982;9.232;2023-02-15T01:14:25;20.48;;;18.35;;
21202;SDS011;10759;51.982;9.232;2023-02-15T01:16:53;19.35;;;17.38;;
21202;SDS011;10759;51.982;9.232;2023-02-15T01:19:21;19.58;;;17.77;;
21202;SDS011;10759;51.982;9.232;2023-02-15T01:21:49;21.20;;;18.95;;
21202;SDS011;10759;51.982;9.232;2023-02-15T01:24:18;20.23;;;17.48;;
21202;SDS011;10759;51.982;9.232;2023-02-15T01:26:46;19.07;;;17.37;;
21202;SDS011;10759;51.982;9.232;2023-02-15T01:29:14;19.15;;;17.25;;
21202;SDS011;10759;51.982;9.232;2023-02-15T01:31:42;21.52;;;18.25;;
21202;SDS011;10759;51.982;9.232;2023-02-15T01:34:13;20.02;;;18.08;;
21202;SDS011;10759;51.982;9.232;2023-02-15T01:36:41;19.27;;;17.25;;
21202;SDS011;10759;51.982;9.232;2023-02-15T01:39:09;21.60;;;19.40;;
21202;SDS011;10759;51.982;9.232;2023-02-15T01:41:38;21.52;;;19.23;;
21202;SDS011;10759;51.982;9.232;2023-02-15T01:47:08;22.02;;;19.38;;
21202;SDS011;10759;51.982;9.232;2023-02-15T01:49:39;21.77;;;19.17;;
21202;SDS011;10759;51.982;9.232;2023-02-15T01:52:09;20.70;;;18.67;;
21202;SDS011;10759;51.982;9.232;2023-02-15T01:54:42;21.00;;;18.80;;
21202;SDS011;10759;51.982;9.232;2023-02-15T01:57:15;23.25;;;19.58;;
21202;SDS011;10759;51.982;9.232;2023-02-15T01:59:48;21.33;;;19.02;;
21202;SDS011;10759;51.982;9.232;2023-02-15T02:02:21;22.95;;;20.65;;
21202;SDS011;10759;51.982;9.232;2023-02-15T02:04:52;25.02;;;22.38;;
21202;SDS011;10759;51.982;9.232;2023-02-15T02:07:23;29.00;;;24.65;;
21202;SDS011;10759;51.982;9.232;2023-02-15T02:09:54;27.92;;;24.77;;
21202;SDS011;10759;51.982;9.232;2023-02-15T02:12:24;28.13;;;25.00;;
21202;SDS011;10759;51.982;9.232;2023-02-15T02:14:53;30.15;;;25.73;;
21202;SDS011;10759;51.982;9.232;2023-02-15T02:17:24;26.47;;;23.77;;
21202;SDS011;10759;51.982;9.232;2023-02-15T02:23:06;27.23;;;23.52;;
21202;SDS011;10759;51.982;9.232;2023-02-15T02:28:37;29.35;;;25.70;;
21202;SDS011;10759;51.982;9.232;2023-02-15T02:31:28;30.35;;;27.13;;
21202;SDS011;10759;51.982;9.232;2023-02-15T02:34:13;30.45;;;27.20;;
21202;SDS011;10759;51.982;9.232;2023-02-15T02:36:49;29.98;;;26.15;;
21202;SDS011;10759;51.982;9.232;2023-02-15T02:39:24;29.63;;;26.50;;
21202;SDS011;10759;51.982;9.232;2023-02-15T02:42:00;31.27;;;26.73;;
21202;SDS011;10759;51.982;9.232;2023-02-15T02:44:35;31.08;;;27.60;;
21202;SDS011;10759;51.982;9.232;2023-02-15T02:47:11;32.95;;;27.92;;
21202;SDS011;10759;51.982;9.232;2023-02-15T02:49:46;31.55;;;27.10;;
21202;SDS011;10759;51.982;9.232;2023-02-15T02:52:34;30.67;;;27.40;;
21202;SDS011;10759;51.982;9.232;2023-02-15T02:55:09;30.70;;;27.48;;
21202;SDS011;10759;51.982;9.232;2023-02-15T02:57:42;31.55;;;27.90;;
21202;SDS011;10759;51.982;9.232;2023-02-15T03:00:15;32.72;;;28.52;;
21202;SDS011;10759;51.982;9.232;2023-02-15T03:02:46;31.27;;;27.55;;
21202;SDS011;10759;51.982;9.232;2023-02-15T03:05:22;35.67;;;30.83;;
21202;SDS011;10759;51.982;9.232;2023-02-15T03:07:54;34.63;;;29.77;;
21202;SDS011;10759;51.982;9.232;2023-02-15T03:12:52;33.88;;;29.55;;
21202;SDS011;10759;51.982;9.232;2023-02-15T03:15:22;35.35;;;29.45;;
21202;SDS011;10759;51.982;9.232;2023-02-15T03:17:55;37.45;;;30.55;;
21202;SDS011;10759;51.982;9.232;2023-02-15T03:20:31;32.45;;;28.80;;
21202;SDS011;10759;51.982;9.232;2023-02-15T03:23:04;32.00;;;28.50;;
21202;SDS011;10759;51.982;9.232;2023-02-15T03:25:39;34.22;;;30.15;;
21202;SDS011;10759;51.982;9.232;2023-02-15T03:28:11;34.15;;;29.67;;
21202;SDS011;10759;51.982;9.232;2023-02-15T03:30:43;31.83;;;28.52;;
21202;SDS011;10759;51.982;9.232;2023-02-15T03:33:15;33.97;;;30.40;;
21202;SDS011;10759;51.982;9.232;2023-02-15T03:35:47;32.38;;;28.98;;
21202;SDS011;10759;51.982;9.232;2023-02-15T03:38:21;34.10;;;30.13;;
21202;SDS011;10759;51.982;9.232;2023-02-15T03:40:57;31.63;;;28.23;;
21202;SDS011;10759;51.982;9.232;2023-02-15T03:43:40;34.60;;;29.83;;
21202;SDS011;10759;51.982;9.232;2023-02-15T03:46:16;34.45;;;30.23;;
21202;SDS011;10759;51.982;9.232;2023-02-15T03:48:51;33.30;;;29.27;;
21202;SDS011;10759;51.982;9.232;2023-02-15T03:51:23;33.30;;;29.65;;
21202;SDS011;10759;51.982;9.232;2023-02-15T03:54:05;33.63;;;29.33;;
21202;SDS011;10759;51.982;9.232;2023-02-15T03:56:37;34.88;;;28.88;;
21202;SDS011;10759;51.982;9.232;2023-02-15T03:59:07;35.05;;;30.75;;
21202;SDS011;10759;51.982;9.232;2023-02-15T04:01:56;38.05;;;30.30;;
21202;SDS011;10759;51.982;9.232;2023-02-15T04:04:34;33.85;;;29.40;;
21202;SDS011;10759;51.982;9.232;2023-02-15T04:07:06;35.75;;;30.35;;
21202;SDS011;10759;51.982;9.232;2023-02-15T04:09:35;34.55;;;28.85;;
21202;SDS011;10759;51.982;9.232;2023-02-15T04:12:21;34.03;;;30.05;;
21202;SDS011;10759;51.982;9.232;2023-02-15T04:14:50;35.72;;;30.20;;
21202;SDS011;10759;51.982;9.232;2023-02-15T04:17:35;34.30;;;29.08;;
21202;SDS011;10759;51.982;9.232;2023-02-15T04:20:04;36.50;;;30.00;;
21202;SDS011;10759;51.982;9.232;2023-02-15T04:22:52;34.90;;;29.98;;
21202;SDS011;10759;51.982;9.232;2023-02-15T04:25:37;33.38;;;29.77;;
21202;SDS011;10759;51.982;9.232;2023-02-15T04:28:05;33.80;;;30.08;;
21202;SDS011;10759;51.982;9.232;2023-02-15T04:30:34;34.05;;;28.85;;
21202;SDS011;10759;51.982;9.232;2023-02-15T04:33:02;34.17;;;30.00;;
21202;SDS011;10759;51.982;9.232;2023-02-15T04:35:30;32.95;;;29.50;;
21202;SDS011;10759;51.982;9.232;2023-02-15T04:38:01;34.38;;;30.55;;
21202;SDS011;10759;51.982;9.232;2023-02-15T04:40:29;33.85;;;30.00;;
21202;SDS011;10759;51.982;9.232;2023-02-15T04:42:57;33.10;;;29.35;;
21202;SDS011;10759;51.982;9.232;2023-02-15T04:45:24;33.83;;;30.23;;
21202;SDS011;10759;51.982;9.232;2023-02-15T04:47:53;32.35;;;28.38;;
21202;SDS011;10759;51.982;9.232;2023-02-15T04:50:21;31.33;;;27.50;;
21202;SDS011;10759;51.982;9.232;2023-02-15T04:52:49;30.83;;;27.55;;
21202;SDS011;10759;51.982;9.232;2023-02-15T04:55:18;32.28;;;28.92;;
21202;SDS011;10759;51.982;9.232;2023-02-15T04:57:46;23.83;;;21.38;;
21202;SDS011;10759;51.982;9.232;2023-02-15T05:00:14;32.05;;;28.63;;
21202;SDS011;10759;51.982;9.232;2023-02-15T05:02:43;31.73;;;28.23;;
21202;SDS011;10759;51.982;9.232;2023-02-15T05:05:10;31.40;;;28.15;;
21202;SDS011;10759;51.982;9.232;2023-02-15T05:07:41;30.15;;;26.90;;
21202;SDS011;10759;51.982;9.232;2023-02-15T05:10:09;32.40;;;26.65;;
21202;SDS011;10759;51.982;9.232;2023-02-15T05:12:38;31.55;;;28.25;;
21202;SDS011;10759;51.982;9.232;2023-02-15T05:15:06;32.35;;;27.45;;
21202;SDS011;10759;51.982;9.232;2023-02-15T05:17:35;30.33;;;27.13;;
21202;SDS011;10759;51.982;9.232;2023-02-15T05:20:04;32.33;;;27.17;;
21202;SDS011;10759;51.982;9.232;2023-02-15T05:22:32;32.70;;;27.92;;
21202;SDS011;10759;51.982;9.232;2023-02-15T05:25:00;30.83;;;26.67;;
21202;SDS011;10759;51.982;9.232;2023-02-15T05:27:47;34.83;;;28.67;;
21202;SDS011;10759;51.982;9.232;2023-02-15T05:30:32;33.13;;;26.90;;
21202;SDS011;10759;51.982;9.232;2023-02-15T05:33:01;30.08;;;26.63;;
21202;SDS011;10759;51.982;9.232;2023-02-15T05:35:28;31.50;;;27.58;;
21202;SDS011;10759;51.982;9.232;2023-02-15T05:37:56;28.05;;;25.05;;
21202;SDS011;10759;51.982;9.232;2023-02-15T05:40:24;31.50;;;27.63;;
21202;SDS011;10759;51.982;9.232;2023-02-15T05:42:54;30.23;;;27.00;;
21202;SDS011;10759;51.982;9.232;2023-02-15T05:45:22;28.57;;;25.23;;
21202;SDS011;10759;51.982;9.232;2023-02-15T05:47:49;28.65;;;25.58;;
21202;SDS011;10759;51.982;9.232;2023-02-15T05:50:18;27.08;;;24.25;;
21202;SDS011;10759;51.982;9.232;2023-02-15T05:52:46;28.15;;;25.15;;
21202;SDS011;10759;51.982;9.232;2023-02-15T05:55:16;28.90;;;25.80;;
21202;SDS011;10759;51.982;9.232;2023-02-15T05:57:45;26.63;;;23.85;;
21202;SDS011;10759;51.982;9.232;2023-02-15T06:00:15;26.88;;;24.10;;
21202;SDS011;10759;51.982;9.232;2023-02-15T06:02:43;28.02;;;24.98;;
21202;SDS011;10759;51.982;9.232;2023-02-15T06:05:11;27.38;;;24.48;;
21202;SDS011;10759;51.982;9.232;2023-02-15T06:07:42;26.70;;;23.88;;
21202;SDS011;10759;51.982;9.232;2023-02-15T06:10:10;27.25;;;24.27;;
21202;SDS011;10759;51.982;9.232;2023-02-15T06:12:38;29.38;;;25.30;;
21202;SDS011;10759;51.982;9.232;2023-02-15T06:15:07;31.33;;;27.95;;
21202;SDS011;10759;51.982;9.232;2023-02-15T06:17:37;29.63;;;25.48;;
21202;SDS011;10759;51.982;9.232;2023-02-15T06:20:05;29.50;;;26.10;;
21202;SDS011;10759;51.982;9.232;2023-02-15T06:22:34;31.15;;;27.73;;
21202;SDS011;10759;51.982;9.232;2023-02-15T06:25:02;28.42;;;24.98;;
21202;SDS011;10759;51.982;9.232;2023-02-15T06:27:30;27.63;;;24.60;;
21202;SDS011;10759;51.982;9.232;2023-02-15T06:29:58;28.65;;;25.40;;
21202;SDS011;10759;51.982;9.232;2023-02-15T06:32:27;27.38;;;24.52;;
21202;SDS011;10759;51.982;9.232;2023-02-15T06:34:56;27.95;;;25.02;;
21202;SDS011;10759;51.982;9.232;2023-02-15T06:37:24;26.85;;;24.05;;
21202;SDS011;10759;51.982;9.232;2023-02-15T06:39:53;26.52;;;23.95;;
21202;SDS011;10759;51.982;9.232;2023-02-15T06:42:20;26.92;;;24.20;;
21202;SDS011;10759;51.982;9.232;2023-02-15T06:44:49;27.10;;;24.23;;
21202;SDS011;10759;51.982;9.232;2023-02-15T06:47:17;26.35;;;23.50;;
21202;SDS011;10759;51.982;9.232;2023-02-15T06:49:44;27.92;;;24.92;;
21202;SDS011;10759;51.982;9.232;2023-02-15T06:52:14;25.63;;;23.13;;
21202;SDS011;10759;51.982;9.232;2023-02-15T06:54:42;27.00;;;24.23;;
21202;SDS011;10759;51.982;9.232;2023-02-15T06:57:09;26.77;;;23.98;;
21202;SDS011;10759;51.982;9.232;2023-02-15T06:59:37;27.38;;;24.58;;
21202;SDS011;10759;51.982;9.232;2023-02-15T07:02:05;26.98;;;24.15;;
21202;SDS011;10759;51.982;9.232;2023-02-15T07:04:33;28.63;;;25.55;;
21202;SDS011;10759;51.982;9.232;2023-02-15T07:07:02;27.27;;;24.48;;
21202;SDS011;10759;51.982;9.232;2023-02-15T07:09:31;27.80;;;24.85;;
21202;SDS011;10759;51.982;9.232;2023-02-15T07:11:59;26.60;;;23.85;;
21202;SDS011;10759;51.982;9.232;2023-02-15T07:14:44;26.85;;;24.10;;
21202;SDS011;10759;51.982;9.232;2023-02-15T07:17:12;25.38;;;22.67;;
21202;SDS011;10759;51.982;9.232;2023-02-15T07:20:00;25.42;;;22.83;;
21202;SDS011;10759;51.982;9.232;2023-02-15T07:22:28;28.40;;;25.20;;
21202;SDS011;10759;51.982;9.232;2023-02-15T07:24:57;26.45;;;23.55;;
21202;SDS011;10759;51.982;9.232;2023-02-15T07:27:25;25.87;;;23.27;;
21202;SDS011;10759;51.982;9.232;2023-02-15T07:29:53;26.05;;;23.27;;
21202;SDS011;10759;51.982;9.232;2023-02-15T07:32:21;25.65;;;23.05;;
21202;SDS011;10759;51.982;9.232;2023-02-15T07:34:49;31.88;;;28.58;;
21202;SDS011;10759;51.982;9.232;2023-02-15T07:37:17;31.52;;;27.35;;
21202;SDS011;10759;51.982;9.232;2023-02-15T07:39:45;28.85;;;25.45;;
21202;SDS011;10759;51.982;9.232;2023-02-15T07:42:15;32.88;;;24.67;;
21202;SDS011;10759;51.982;9.232;2023-02-15T07:44:45;29.33;;;25.70;;
21202;SDS011;10759;51.982;9.232;2023-02-15T07:47:13;30.65;;;27.35;;
21202;SDS011;10759;51.982;9.232;2023-02-15T07:49:41;32.85;;;28.00;;
21202;SDS011;10759;51.982;9.232;2023-02-15T07:52:09;28.00;;;24.00;;
21202;SDS011;10759;51.982;9.232;2023-02-15T07:54:37;30.35;;;25.42;;
21202;SDS011;10759;51.982;9.232;2023-02-15T07:57:05;33.53;;;29.67;;
21202;SDS011;10759;51.982;9.232;2023-02-15T07:59:34;26.90;;;23.98;;
21202;SDS011;10759;51.982;9.232;2023-02-15T08:02:02;28.50;;;25.27;;
21202;SDS011;10759;51.982;9.232;2023-02-15T08:04:30;34.40;;;26.00;;
21202;SDS011;10759;51.982;9.232;2023-02-15T08:06:58;28.92;;;25.85;;
21202;SDS011;10759;51.982;9.232;2023-02-15T08:09:26;26.25;;;23.73;;
21202;SDS011;10759;51.982;9.232;2023-02-15T08:11:53;24.73;;;22.25;;
21202;SDS011;10759;51.982;9.232;2023-02-15T08:14:21;23.95;;;21.45;;
21202;SDS011;10759;51.982;9.232;2023-02-15T08:16:51;24.63;;;22.08;;
21202;SDS011;10759;51.982;9.232;2023-02-15T08:19:21;22.40;;;20.30;;
21202;SDS011;10759;51.982;9.232;2023-02-15T08:21:51;23.65;;;21.33;;
21202;SDS011;10759;51.982;9.232;2023-02-15T08:24:21;24.05;;;21.55;;
21202;SDS011;10759;51.982;9.232;2023-02-15T08:26:50;28.67;;;22.05;;
21202;SDS011;10759;51.982;9.232;2023-02-15T08:29:20;22.58;;;20.25;;
21202;SDS011;10759;51.982;9.232;2023-02-15T08:31:52;22.48;;;20.15;;
21202;SDS011;10759;51.982;9.232;2023-02-15T08:34:21;24.75;;;22.05;;
21202;SDS011;10759;51.982;9.232;2023-02-15T08:36:49;26.52;;;23.73;;
21202;SDS011;10759;51.982;9.232;2023-02-15T08:39:18;26.08;;;22.45;;
21202;SDS011;10759;51.982;9.232;2023-02-15T08:41:47;30.80;;;25.75;;
21202;SDS011;10759;51.982;9.232;2023-02-15T08:44:16;27.92;;;25.02;;
21202;SDS011;10759;51.982;9.232;2023-02-15T08:49:17;26.35;;;23.58;;
21202;SDS011;10759;51.982;9.232;2023-02-15T08:51:46;25.08;;;22.27;;
21202;SDS011;10759;51.982;9.232;2023-02-15T08:54:16;24.20;;;21.67;;
21202;SDS011;10759;51.982;9.232;2023-02-15T08:56:46;24.48;;;21.25;;
21202;SDS011;10759;51.982;9.232;2023-02-15T08:59:14;26.42;;;22.20;;
21202;SDS011;10759;51.982;9.232;2023-02-15T09:01:44;24.75;;;22.17;;
21202;SDS011;10759;51.982;9.232;2023-02-15T09:04:12;24.60;;;21.95;;
21202;SDS011;10759;51.982;9.232;2023-02-15T09:06:44;24.83;;;22.15;;
21202;SDS011;10759;51.982;9.232;2023-02-15T09:09:14;23.65;;;21.15;;
21202;SDS011;10759;51.982;9.232;2023-02-15T09:11:43;23.55;;;21.02;;
21202;SDS011;10759;51.982;9.232;2023-02-15T09:14:12;22.88;;;20.50;;
21202;SDS011;10759;51.982;9.232;2023-02-15T09:16:42;22.33;;;20.13;;
21202;SDS011;10759;51.982;9.232;2023-02-15T09:19:12;22.95;;;20.05;;
21202;SDS011;10759;51.982;9.232;2023-02-15T09:21:40;22.90;;;20.58;;
21202;SDS011;10759;51.982;9.232;2023-02-15T09:24:11;24.98;;;20.88;;
21202;SDS011;10759;51.982;9.232;2023-02-15T09:26:41;21.33;;;19.33;;
21202;SDS011;10759;51.982;9.232;2023-02-15T09:29:12;22.48;;;20.08;;
21202;SDS011;10759;51.982;9.232;2023-02-15T09:31:42;21.58;;;19.52;;
21202;SDS011;10759;51.982;9.232;2023-02-15T09:34:12;20.90;;;18.83;;
21202;SDS011;10759;51.982;9.232;2023-02-15T09:36:42;21.25;;;19.05;;
21202;SDS011;10759;51.982;9.232;2023-02-15T09:39:12;20.85;;;18.83;;
21202;SDS011;10759;51.982;9.232;2023-02-15T09:41:52;20.35;;;17.95;;
21202;SDS011;10759;51.982;9.232;2023-02-15T09:44:48;20.65;;;18.65;;
21202;SDS011;10759;51.982;9.232;2023-02-15T09:47:41;20.17;;;18.27;;
21202;SDS011;10759;51.982;9.232;2023-02-15T09:50:23;20.35;;;18.20;;
21202;SDS011;10759;51.982;9.232;2023-02-15T09:53:13;20.27;;;18.40;;
21202;SDS011;10759;51.982;9.232;2023-02-15T09:55:57;19.55;;;17.55;;
21202;SDS011;10759;51.982;9.232;2023-02-15T09:58:32;18.75;;;17.02;;
21202;SDS011;10759;51.982;9.232;2023-02-15T10:01:13;20.58;;;18.42;;
21202;SDS011;10759;51.982;9.232;2023-02-15T10:03:53;19.50;;;17.60;;
21202;SDS011;10759;51.982;9.232;2023-02-15T10:06:33;18.15;;;16.40;;
21202;SDS011;10759;51.982;9.232;2023-02-15T10:09:14;18.80;;;17.05;;
21202;SDS011;10759;51.982;9.232;2023-02-15T10:11:59;20.50;;;18.40;;
21202;SDS011;10759;51.982;9.232;2023-02-15T10:14:43;22.85;;;18.98;;
21202;SDS011;10759;51.982;9.232;2023-02-15T10:17:28;18.67;;;16.98;;
21202;SDS011;10759;51.982;9.232;2023-02-15T10:20:08;18.88;;;16.88;;
21202;SDS011;10759;51.982;9.232;2023-02-15T10:22:49;18.45;;;16.67;;
21202;SDS011;10759;51.982;9.232;2023-02-15T10:25:33;18.60;;;16.80;;
21202;SDS011;10759;51.982;9.232;2023-02-15T10:28:11;17.77;;;16.15;;
21202;SDS011;10759;51.982;9.232;2023-02-15T10:30:46;19.88;;;18.08;;
21202;SDS011;10759;51.982;9.232;2023-02-15T10:33:24;19.55;;;17.65;;
21202;SDS011;10759;51.982;9.232;2023-02-15T10:36:07;19.00;;;17.20;;
21202;SDS011;10759;51.982;9.232;2023-02-15T10:41:23;19.27;;;17.38;;
21202;SDS011;10759;51.982;9.232;2023-02-15T10:44:12;18.08;;;16.42;;
21202;SDS011;10759;51.982;9.232;2023-02-15T10:49:59;17.35;;;15.73;;
21202;SDS011;10759;51.982;9.232;2023-02-15T10:52:44;17.23;;;15.52;;
21202;SDS011;10759;51.982;9.232;2023-02-15T10:55:26;17.10;;;15.38;;
21202;SDS011;10759;51.982;9.232;2023-02-15T10:58:05;19.08;;;17.25;;
21202;SDS011;10759;51.982;9.232;2023-02-15T11:00:41;18.13;;;16.23;;
21202;SDS011;10759;51.982;9.232;2023-02-15T11:03:23;18.63;;;16.67;;
21202;SDS011;10759;51.982;9.232;2023-02-15T11:06:02;17.65;;;16.00;;
21202;SDS011;10759;51.982;9.232;2023-02-15T11:08:37;18.27;;;16.55;;
21202;SDS011;10759;51.982;9.232;2023-02-15T11:11:09;17.08;;;15.32;;
21202;SDS011;10759;51.982;9.232;2023-02-15T11:13:43;18.02;;;16.15;;
21202;SDS011;10759;51.982;9.232;2023-02-15T11:16:16;17.35;;;15.68;;
21202;SDS011;10759;51.982;9.232;2023-02-15T11:18:48;16.48;;;14.98;;
21202;SDS011;10759;51.982;9.232;2023-02-15T11:21:21;18.10;;;16.38;;
21202;SDS011;10759;51.982;9.232;2023-02-15T11:23:51;16.45;;;14.77;;
21202;SDS011;10759;51.982;9.232;2023-02-15T11:26:21;17.52;;;15.88;;
21202;SDS011;10759;51.982;9.232;2023-02-15T11:28:56;18.05;;;16.35;;
21202;SDS011;10759;51.982;9.232;2023-02-15T11:31:34;17.13;;;15.52;;
21202;SDS011;10759;51.982;9.232;2023-02-15T11:34:12;17.20;;;15.52;;
21202;SDS011;10759;51.982;9.232;2023-02-15T11:36:46;18.15;;;15.48;;
21202;SDS011;10759;51.982;9.232;2023-02-15T11:39:18;20.70;;;18.52;;
21202;SDS011;10759;51.982;9.232;2023-02-15T11:41:50;17.48;;;15.77;;
21202;SDS011;10759;51.982;9.232;2023-02-15T11:44:21;17.50;;;15.93;;
21202;SDS011;10759;51.982;9.232;2023-02-15T11:46:54;17.55;;;15.90;;
21202;SDS011;10759;51.982;9.232;2023-02-15T11:49:22;17.37;;;15.87;;
21202;SDS011;10759;51.982;9.232;2023-02-15T11:51:58;18.88;;;16.98;;
21202;SDS011;10759;51.982;9.232;2023-02-15T11:54:30;17.92;;;16.25;;
21202;SDS011;10759;51.982;9.232;2023-02-15T11:57:01;17.55;;;15.82;;
21202;SDS011;10759;51.982;9.232;2023-02-15T11:59:37;18.25;;;16.42;;
21202;SDS011;10759;51.982;9.232;2023-02-15T12:02:15;16.45;;;14.93;;
21202;SDS011;10759;51.982;9.232;2023-02-15T12:04:45;18.42;;;16.33;;
21202;SDS011;10759;51.982;9.232;2023-02-15T12:07:19;16.73;;;15.20;;
21202;SDS011;10759;51.982;9.232;2023-02-15T12:09:53;18.15;;;16.35;;
21202;SDS011;10759;51.982;9.232;2023-02-15T12:12:27;17.15;;;15.40;;
21202;SDS011;10759;51.982;9.232;2023-02-15T12:14:57;17.73;;;16.02;;
21202;SDS011;10759;51.982;9.232;2023-02-15T12:17:27;17.15;;;15.35;;
21202;SDS011;10759;51.982;9.232;2023-02-15T12:20:00;17.35;;;15.75;;
21202;SDS011;10759;51.982;9.232;2023-02-15T12:22:30;17.35;;;15.85;;
21202;SDS011;10759;51.982;9.232;2023-02-15T12:25:01;16.52;;;15.02;;
21202;SDS011;10759;51.982;9.232;2023-02-15T12:27:32;16.95;;;15.35;;
21202;SDS011;10759;51.982;9.232;2023-02-15T12:30:04;17.42;;;15.80;;
21202;SDS011;10759;51.982;9.232;2023-02-15T12:32:47;14.65;;;13.35;;
21202;SDS011;10759;51.982;9.232;2023-02-15T12:35:21;16.75;;;15.07;;
21202;SDS011;10759;51.982;9.232;2023-02-15T12:37:55;16.42;;;14.75;;
21202;SDS011;10759;51.982;9.232;2023-02-15T12:40:24;15.68;;;14.05;;
21202;SDS011;10759;51.982;9.232;2023-02-15T12:42:57;15.88;;;14.48;;
21202;SDS011;10759;51.982;9.232;2023-02-15T12:45:26;17.05;;;15.45;;
21202;SDS011;10759;51.982;9.232;2023-02-15T12:48:09;14.02;;;12.63;;
21202;SDS011;10759;51.982;9.232;2023-02-15T12:50:42;16.83;;;13.55;;
21202;SDS011;10759;51.982;9.232;2023-02-15T12:53:15;17.97;;;16.27;;
21202;SDS011;10759;51.982;9.232;2023-02-15T12:55:49;16.70;;;14.93;;
21202;SDS011;10759;51.982;9.232;2023-02-15T12:58:20;15.68;;;14.18;;
21202;SDS011;10759;51.982;9.232;2023-02-15T13:01:08;14.18;;;12.60;;
21202;SDS011;10759;51.982;9.232;2023-02-15T13:03:49;15.52;;;13.95;;
21202;SDS011;10759;51.982;9.232;2023-02-15T13:06:24;14.43;;;13.00;;
21202;SDS011;10759;51.982;9.232;2023-02-15T13:08:53;14.23;;;12.87;;
21202;SDS011;10759;51.982;9.232;2023-02-15T13:11:24;15.10;;;13.60;;
21202;SDS011;10759;51.982;9.232;2023-02-15T13:13:58;15.23;;;13.85;;
21202;SDS011;10759;51.982;9.232;2023-02-15T13:16:28;15.55;;;13.88;;
21202;SDS011;10759;51.982;9.232;2023-02-15T13:19:02;15.02;;;13.43;;
21202;SDS011;10759;51.982;9.232;2023-02-15T13:21:35;14.50;;;13.15;;
21202;SDS011;10759;51.982;9.232;2023-02-15T13:24:10;13.90;;;12.45;;
21202;SDS011;10759;51.982;9.232;2023-02-15T13:26:45;13.98;;;12.32;;
21202;SDS011;10759;51.982;9.232;2023-02-15T13:29:17;14.30;;;12.85;;
21202;SDS011;10759;51.982;9.232;2023-02-15T13:31:49;16.02;;;13.82;;
21202;SDS011;10759;51.982;9.232;2023-02-15T13:34:22;17.00;;;14.30;;
21202;SDS011;10759;51.982;9.232;2023-02-15T13:36:54;13.95;;;12.50;;
21202;SDS011;10759;51.982;9.232;2023-02-15T13:39:31;14.60;;;13.30;;
21202;SDS011;10759;51.982;9.232;2023-02-15T13:42:09;14.35;;;11.68;;
21202;SDS011;10759;51.982;9.232;2023-02-15T13:44:54;14.15;;;12.45;;
21202;SDS011;10759;51.982;9.232;2023-02-15T13:47:37;15.75;;;14.25;;
21202;SDS011;10759;51.982;9.232;2023-02-15T13:53:21;15.85;;;13.95;;
21202;SDS011;10759;51.982;9.232;2023-02-15T13:56:04;15.07;;;13.35;;
21202;SDS011;10759;51.982;9.232;2023-02-15T14:01:38;13.95;;;12.65;;
21202;SDS011;10759;51.982;9.232;2023-02-15T14:07:33;14.45;;;13.05;;
21202;SDS011;10759;51.982;9.232;2023-02-15T14:10:21;15.27;;;13.30;;
21202;SDS011;10759;51.982;9.232;2023-02-15T14:16:11;14.77;;;12.93;;
21202;SDS011;10759;51.982;9.232;2023-02-15T14:18:48;15.23;;;13.80;;
21202;SDS011;10759;51.982;9.232;2023-02-15T14:21:19;15.98;;;14.60;;
21202;SDS011;10759;51.982;9.232;2023-02-15T14:24:00;15.75;;;14.15;;
21202;SDS011;10759;51.982;9.232;2023-02-15T14:26:47;14.90;;;13.53;;
21202;SDS011;10759;51.982;9.232;2023-02-15T14:29:22;16.63;;;15.02;;
21202;SDS011;10759;51.982;9.232;2023-02-15T14:32:09;15.48;;;13.68;;
21202;SDS011;10759;51.982;9.232;2023-02-15T14:34:43;14.68;;;13.13;;
21202;SDS011;10759;51.982;9.232;2023-02-15T14:37:17;14.63;;;13.15;;
21202;SDS011;10759;51.982;9.232;2023-02-15T14:39:53;15.50;;;14.00;;
21202;SDS011;10759;51.982;9.232;2023-02-15T14:42:45;15.70;;;14.18;;
21202;SDS011;10759;51.982;9.232;2023-02-15T14:45:23;16.08;;;14.68;;
21202;SDS011;10759;51.982;9.232;2023-02-15T14:48:02;18.17;;;16.33;;
21202;SDS011;10759;51.982;9.232;2023-02-15T14:50:40;17.67;;;14.85;;
21202;SDS011;10759;51.982;9.232;2023-02-15T14:53:22;15.57;;;14.07;;
21202;SDS011;10759;51.982;9.232;2023-02-15T14:56:12;17.23;;;15.40;;
21202;SDS011;10759;51.982;9.232;2023-02-15T14:59:08;15.68;;;14.18;;
21202;SDS011;10759;51.982;9.232;2023-02-15T15:01:42;16.45;;;14.75;;
21202;SDS011;10759;51.982;9.232;2023-02-15T15:04:22;16.13;;;14.63;;
21202;SDS011;10759;51.982;9.232;2023-02-15T15:06:58;16.35;;;14.75;;
21202;SDS011;10759;51.982;9.232;2023-02-15T15:09:29;17.13;;;15.43;;
21202;SDS011;10759;51.982;9.232;2023-02-15T15:15:10;16.65;;;14.90;;
21202;SDS011;10759;51.982;9.232;2023-02-15T15:17:57;16.30;;;14.70;;
21202;SDS011;10759;51.982;9.232;2023-02-15T15:20:43;18.67;;;16.98;;
21202;SDS011;10759;51.982;9.232;2023-02-15T15:26:21;17.17;;;15.45;;
21202;SDS011;10759;51.982;9.232;2023-02-15T15:28:56;16.85;;;15.15;;
21202;SDS011;10759;51.982;9.232;2023-02-15T15:31:28;18.02;;;16.42;;
21202;SDS011;10759;51.982;9.232;2023-02-15T15:40:25;17.50;;;15.82;;